Burwash Landing, Canada
Current Conditions -  °F | °C
As of 6:00 PM on Tuesday 21 Oct 2014 (Local Time) from CYDB Reporting Station
Clear Clear  
Wind Chill: 30°   Ceiling: Unl
Heat Index: 30°   Visibility: 9mi
Dew Point: 28°   Wind: 2mph
Humidity: 93%   Direction: 310°NW
Pressure: 29.31"   Gusts: NA
Location:  61.35°N, 138.99°W
Report Text: CYDB 220100Z AUTO 31002KT 9SM CLR M01/M02 A2931 RMK SLP969
Loading
Personal Weather Stations






























Interactive Weather Map
Tropical Storm Tracking
New forecast layout! Learn more

10-Day Weather Forecast

Advertisements
Track Severe Weather on mobile